Pictou, Canada
Current Conditions -  °F | °C
As of 9:00 AM on Monday 22 Dec 2014 (Local Time) from CYYG Reporting Station
Light Snow Light Snow  
Wind Chill: 27°   Ceiling: 1700
Heat Index: 27°   Visibility: 15mi
Dew Point: 19°   Wind: 2mph
Humidity: 74%   Direction: NA
Pressure: 30.48"   Gusts: NA
Location:  45.67°N, 62.7°W
Report Text: CYYG 221300Z VRB02KT 15SM -SG OVC017 M03/M07 A3048 RMK SC8 SLP323
Loading
Personal Weather Stations






























Interactive Weather Map New forecast layout! Learn more

10-Day Weather Forecast

Advertisements
Track Severe Weather on mobile